| time (UTC) | temp F | wind direction | speed MPH | gust MPH | rain 1hr in | rain 24hr in | rain mn in | humidity % | barometer mb |
| 20260504223520 | 60 | 148 | 0.0 | 1.0 | 0.01 | 0.04 | 0.04 | 59 | 1008.5 |
| 20260504223022 | 60 | 117 | 0.0 | 1.0 | 0.00 | 0.03 | 0.03 | 59 | 1008.3 |
| 20260504222529 | 60 | 115 | 0.0 | 0.0 | 0.01 | 0.03 | 0.03 | 59 | 1008.1 |
| 20260504222037 | 60 | 115 | 0.0 | 0.0 | 0.01 | 0.03 | 0.03 | 60 | 1007.9 |
| 20260504221518 | 60 | 115 | 0.0 | 0.0 | 0.01 | 0.03 | 0.03 | 59 | 1007.7 |
| 20260504221019 | 60 | 115 | 0.0 | 1.0 | 0.01 | 0.03 | 0.03 | 59 | 1007.5 |
| 20260504220548 | 60 | 115 | 0.0 | 3.0 | 0.01 | 0.03 | 0.03 | 59 | 1007.3 |
| 20260504220044 | 59 | 115 | 0.0 | 3.0 | 0.01 | 0.03 | 0.03 | 58 | 1007.1 |
| 20260504215516 | 59 | 26 | 0.0 | 2.0 | 0.01 | 0.03 | 0.03 | 59 | 1006.9 |
| 20260504215017 | 59 | 355 | 0.0 | 3.0 | 0.02 | 0.03 | 0.03 | 58 | 1006.9 |
| 20260504214542 | 59 | 355 | 0.0 | 5.0 | 0.02 | 0.03 | 0.03 | 57 | 1007.0 |
| 20260504214042 | 58 | 294 | 1.0 | 7.0 | 0.02 | 0.03 | 0.03 | 58 | 1007.1 |
| 20260504213530 | 58 | 346 | 2.0 | 7.0 | 0.02 | 0.03 | 0.03 | 60 | 1007.4 |
| 20260504213057 | 57 | 325 | 1.0 | 5.0 | 0.03 | 0.03 | 0.03 | 61 | 1007.4 |
| 20260504212515 | 57 | 259 | 1.0 | 9.0 | 0.02 | 0.02 | 0.02 | 61 | 1007.6 |
| 20260504212016 | 57 | 326 | 1.0 | 9.0 | 0.02 | 0.02 | 0.02 | 60 | 1008.0 |
| 20260504211523 | 57 | 327 | 3.0 | 12.0 | 0.02 | 0.02 | 0.02 | 62 | 1008.4 |
| 20260504211024 | 57 | 335 | 4.0 | 12.0 | 0.02 | 0.02 | 0.02 | 63 | 1008.8 |
| 20260504210532 | 57 | 340 | 0.0 | 1.0 | 0.02 | 0.02 | 0.02 | 64 | 1008.6 |
| 20260504210013 | 58 | 339 | 0.0 | 6.0 | 0.02 | 0.02 | 0.02 | 61 | 1008.8 |
| 20260504205514 | 58 | 339 | 0.0 | 9.0 | 0.02 | 0.02 | 0.02 | 57 | 1008.8 |
| 20260504205024 | 60 | 300 | 2.0 | 9.0 | 0.01 | 0.01 | 0.01 | 56 | 1008.6 |
| 20260504204524 | 61 | 331 | 1.0 | 15.0 | 0.01 | 0.01 | 0.01 | 56 | 1008.6 |
| 20260504204026 | 63 | 319 | 2.0 | 15.0 | 0.01 | 0.01 | 0.01 | 52 | 1008.3 |
| 20260504203535 | 66 | 324 | 3.0 | 15.0 | 0.01 | 0.01 | 0.01 | 41 | 1008.2 |
| 20260504203016 | 68 | 13 | 3.0 | 15.0 | 0.00 | 0.00 | 0.00 | 32 | 1007.8 |
| 20260504202517 | 70 | 323 | 2.0 | 9.0 | 0.00 | 0.00 | 0.00 | 30 | 1007.6 |
| 20260504202026 | 71 | 67 | 4.0 | 10.0 | 0.00 | 0.00 | 0.00 | 25 | 1007.0 |
| 20260504201548 | 73 | 306 | 4.0 | 10.0 | 0.00 | 0.00 | 0.00 | 22 | 1006.9 |
| 20260504201034 | 74 | 326 | 1.0 | 5.0 | 0.00 | 0.00 | 0.00 | 21 | 1006.5 |
| 20260504200515 | 75 | 317 | 1.0 | 7.0 | 0.00 | 0.00 | 0.00 | 21 | 1006.5 |
| 20260504200016 | 75 | 317 | 1.0 | 7.0 | 0.00 | 0.00 | 0.00 | 20 | 1006.5 |
| 20260504195525 | 76 | 334 | 1.0 | 7.0 | 0.00 | 0.00 | 0.00 | 21 | 1006.5 |
| 20260504195025 | 76 | 341 | 3.0 | 7.0 | 0.00 | 0.00 | 0.00 | 20 | 1006.5 |
| 20260504194514 | 76 | 298 | 3.0 | 7.0 | 0.00 | 0.00 | 0.00 | 22 | 1006.4 |
| 20260504194035 | 75 | 303 | 2.0 | 8.0 | 0.00 | 0.00 | 0.00 | 22 | 1006.5 |
| 20260504193523 | 75 | 336 | 2.0 | 13.0 | 0.00 | 0.00 | 0.00 | 21 | 1006.6 |
| 20260504193024 | 75 | 338 | 3.0 | 13.0 | 0.00 | 0.00 | 0.00 | 22 | 1006.6 |
| 20260504192532 | 75 | 329 | 4.0 | 11.0 | 0.00 | 0.00 | 0.00 | 22 | 1006.5 |
| 20260504192032 | 76 | 271 | 4.0 | 8.0 | 0.00 | 0.00 | 0.00 | 21 | 1006.6 |
| 20260504191600 | 75 | 263 | 5.0 | 8.0 | 0.00 | 0.00 | 0.00 | 21 | 1006.6 |
| 20260504191021 | 75 | 254 | 4.0 | 7.0 | 0.00 | 0.00 | 0.00 | 22 | 1006.6 |
| 20260504190523 | 75 | 272 | 4.0 | 8.0 | 0.00 | 0.00 | 0.00 | 22 | 1006.6 |
| 20260504190032 | 75 | 253 | 5.0 | 8.0 | 0.00 | 0.00 | 0.00 | 21 | 1006.6 |
| 20260504185532 | 74 | 241 | 3.0 | 7.0 | 0.00 | 0.00 | 0.00 | 23 | 1006.6 |
| 20260504185032 | 73 | 252 | 3.0 | 9.0 | 0.00 | 0.00 | 0.00 | 24 | 1006.7 |
| 20260504184513 | 73 | 256 | 5.0 | 9.0 | 0.00 | 0.00 | 0.00 | 23 | 1006.7 |
| 20260504184041 | 73 | 259 | 3.0 | 7.0 | 0.00 | 0.00 | 0.00 | 21 | 1006.8 |
| 20260504183528 | 72 | 246 | 5.0 | 7.0 | 0.00 | 0.00 | 0.00 | 23 | 1006.8 |
| 20260504183030 | 72 | 304 | 5.0 | 12.0 | 0.00 | 0.00 | 0.00 | 24 | 1006.9 |
| 20260504182537 | 72 | 250 | 5.0 | 12.0 | 0.00 | 0.00 | 0.00 | 23 | 1007.0 |
| 20260504182039 | 71 | 248 | 5.0 | 11.0 | 0.00 | 0.00 | 0.00 | 25 | 1007.0 |
| 20260504181525 | 71 | 253 | 5.0 | 11.0 | 0.00 | 0.00 | 0.00 | 25 | 1007.1 |
| 20260504181025 | 70 | 251 | 4.0 | 9.0 | 0.00 | 0.00 | 0.00 | 26 | 1007.4 |
| 20260504180552 | 70 | 236 | 4.0 | 10.0 | 0.00 | 0.00 | 0.00 | 26 | 1007.5 |
| 20260504180032 | 70 | 270 | 6.0 | 11.0 | 0.00 | 0.00 | 0.00 | 25 | 1007.5 |
| 20260504175518 | 70 | 204 | 7.0 | 11.0 | 0.00 | 0.00 | 0.00 | 26 | 1007.6 |
| 20260504175039 | 70 | 213 | 6.0 | 13.0 | 0.00 | 0.00 | 0.00 | 27 | 1007.7 |
| 20260504174526 | 69 | 250 | 6.0 | 13.0 | 0.00 | 0.00 | 0.00 | 28 | 1007.7 |
| 20260504174028 | 69 | 259 | 7.0 | 10.0 | 0.00 | 0.00 | 0.00 | 27 | 1007.7 |
| 20260504173514 | 68 | 258 | 7.0 | 11.0 | 0.00 | 0.00 | 0.00 | 28 | 1007.8 |
| 20260504173035 | 68 | 261 | 4.0 | 9.0 | 0.00 | 0.00 | 0.00 | 28 | 1008.1 |
| 20260504172542 | 67 | 264 | 2.0 | 6.0 | 0.00 | 0.00 | 0.00 | 29 | 1008.0 |
| 20260504172029 | 67 | 250 | 1.0 | 4.0 | 0.00 | 0.00 | 0.00 | 28 | 1008.1 |
| 20260504171530 | 67 | 268 | 1.0 | 5.0 | 0.00 | 0.00 | 0.00 | 29 | 1008.2 |
| 20260504171031 | 66 | 271 | 2.0 | 6.0 | 0.00 | 0.00 | 0.00 | 30 | 1008.2 |
| 20260504170513 | 66 | 265 | 2.0 | 6.0 | 0.00 | 0.00 | 0.00 | 30 | 1008.2 |
| 20260504151025 | 64 | 244 | 5.0 | 7.0 | 0.00 | 0.00 | 0.00 | 31 | 1008.5 |
| 20260504150532 | 64 | 234 | 4.0 | 8.0 | 0.00 | 0.00 | 0.00 | 31 | 1008.5 |
| 20260504141029 | 48 | 333 | 0.0 | 0.0 | 0.00 | 0.00 | 0.00 | 63 | 1008.4 |
| 20260504140536 | 47 | 333 | 0.0 | 0.0 | 0.00 | 0.00 | 0.00 | 63 | 1008.4 |
| 20260504130521 | 40 | 333 | 0.0 | 0.0 | 0.00 | 0.00 | 0.00 | 63 | 1008.6 |
| 20260504110532 | 39 | 333 | 0.0 | 0.0 | 0.00 | 0.00 | 0.00 | 61 | 1008.6 |
| 20260504100512 | 40 | 333 | 0.0 | 1.0 | 0.00 | 0.00 | 0.00 | 58 | 1008.9 |
| 20260504081514 | 45 | 333 | 0.0 | 0.0 | 0.00 | 0.00 | 0.00 | 50 | 1009.5 |
| 20260504081022 | 45 | 333 | 0.0 | 1.0 | 0.00 | 0.00 | 0.00 | 50 | 1009.6 |
| 20260504080524 | 45 | 333 | 0.0 | 1.0 | 0.00 | 0.00 | 0.00 | 51 | 1009.7 |
| 20260504050529 | 60 | 330 | 1.0 | 4.0 | 0.00 | 0.00 | 0.00 | 30 | 1010.3 |
| 20260504045558 | 60 | 332 | 1.0 | 5.0 | 0.00 | 0.00 | 0.00 | 29 | 1010.1 |
| 20260504045019 | 60 | 333 | 2.0 | 7.0 | 0.00 | 0.00 | 0.00 | 28 | 1010.1 |
| 20260504044520 | 59 | 344 | 1.0 | 7.0 | 0.00 | 0.00 | 0.00 | 28 | 1010.2 |
| 20260504044028 | 59 | 336 | 2.0 | 5.0 | 0.00 | 0.00 | 0.00 | 30 | 1010.1 |
| 20260504043529 | 59 | 262 | 0.0 | 2.0 | 0.00 | 0.00 | 0.00 | 30 | 1010.1 |
| 20260504043031 | 60 | 262 | 0.0 | 1.0 | 0.00 | 0.00 | 0.00 | 30 | 1010.1 |
| 20260504042539 | 60 | 262 | 0.0 | 0.0 | 0.00 | 0.00 | 0.00 | 30 | 1009.9 |
| 20260504042020 | 60 | 262 | 0.0 | 0.0 | 0.00 | 0.00 | 0.00 | 30 | 1009.9 |
| 20260504041520 | 60 | 262 | 0.0 | 0.0 | 0.00 | 0.00 | 0.00 | 29 | 1010.0 |
| 20260504041027 | 61 | 262 | 0.0 | 0.0 | 0.00 | 0.00 | 0.00 | 29 | 1009.9 |
| 20260504040534 | 61 | 262 | 0.0 | 0.0 | 0.00 | 0.00 | 0.00 | 29 | 1010.0 |
| 20260504040015 | 61 | 262 | 0.0 | 1.0 | 0.00 | 0.00 | 0.00 | 29 | 1010.0 |
| 20260504035517 | 61 | 262 | 0.0 | 1.0 | 0.00 | 0.00 | 0.00 | 29 | 1010.1 |
| 20260504035025 | 61 | 262 | 0.0 | 0.0 | 0.00 | 0.00 | 0.00 | 29 | 1010.1 |
| 20260504034526 | 62 | 262 | 0.0 | 0.0 | 0.00 | 0.00 | 0.00 | 28 | 1010.1 |
| 20260504034053 | 62 | 262 | 0.0 | 0.0 | 0.00 | 0.00 | 0.00 | 29 | 1010.1 |
| 20260504033512 | 62 | 262 | 0.0 | 0.0 | 0.00 | 0.00 | 0.00 | 29 | 1010.1 |
| 20260504033014 | 62 | 262 | 0.0 | 2.0 | 0.00 | 0.00 | 0.00 | 29 | 1010.0 |
| 20260504032522 | 62 | 262 | 0.0 | 2.0 | 0.00 | 0.00 | 0.00 | 28 | 1009.9 |
| 20260504032043 | 62 | 262 | 1.0 | 2.0 | 0.00 | 0.00 | 0.00 | 28 | 1010.0 |
| 20260504031531 | 62 | 262 | 0.0 | 0.0 | 0.00 | 0.00 | 0.00 | 28 | 1009.9 |
| 20260504031032 | 62 | 262 | 0.0 | 0.0 | 0.00 | 0.00 | 0.00 | 27 | 1009.9 |
| 20260504030512 | 63 | 262 | 0.0 | 0.0 | 0.00 | 0.00 | 0.00 | 27 | 1009.9 |
| 20260504030041 | 63 | 262 | 0.0 | 0.0 | 0.00 | 0.00 | 0.00 | 28 | 1009.9 |
| 20260504025547 | 63 | 262 | 0.0 | 0.0 | 0.00 | 0.00 | 0.00 | 27 | 1009.9 |
| 20260504025027 | 63 | 262 | 0.0 | 0.0 | 0.00 | 0.00 | 0.00 | 26 | 1009.8 |
| 20260504024514 | 64 | 262 | 0.0 | 1.0 | 0.00 | 0.00 | 0.00 | 25 | 1009.8 |
| 20260504024015 | 64 | 262 | 0.0 | 1.0 | 0.00 | 0.00 | 0.00 | 25 | 1009.8 |
| 20260504023516 | 64 | 262 | 0.0 | 1.0 | 0.00 | 0.00 | 0.00 | 25 | 1009.8 |
| 20260504023023 | 64 | 262 | 0.0 | 1.0 | 0.00 | 0.00 | 0.00 | 25 | 1009.8 |
| 20260504022525 | 64 | 262 | 0.0 | 1.0 | 0.00 | 0.00 | 0.00 | 24 | 1009.7 |
| 20260504022033 | 65 | 262 | 0.0 | 1.0 | 0.00 | 0.00 | 0.00 | 25 | 1009.7 |
| 20260504021515 | 65 | 262 | 0.0 | 1.0 | 0.00 | 0.00 | 0.00 | 25 | 1009.7 |
| 20260504021044 | 65 | 262 | 0.0 | 2.0 | 0.00 | 0.00 | 0.00 | 26 | 1009.7 |
| 20260504020523 | 66 | 262 | 0.0 | 2.0 | 0.00 | 0.00 | 0.00 | 26 | 1009.6 |
| 20260504020025 | 66 | 262 | 0.0 | 3.0 | 0.00 | 0.00 | 0.00 | 24 | 1009.5 |
| 20260504015534 | 67 | 262 | 2.0 | 4.0 | 0.00 | 0.00 | 0.00 | 24 | 1009.6 |
| 20260504015015 | 67 | 261 | 2.0 | 4.0 | 0.00 | 0.00 | 0.00 | 24 | 1009.5 |
| 20260504014544 | 67 | 257 | 2.0 | 4.0 | 0.00 | 0.00 | 0.00 | 23 | 1009.4 |
| 20260504014026 | 68 | 265 | 2.0 | 4.0 | 0.00 | 0.00 | 0.00 | 23 | 1009.4 |
| 20260504013533 | 68 | 257 | 1.0 | 4.0 | 0.00 | 0.00 | 0.00 | 22 | 1009.4 |
| 20260504013015 | 68 | 257 | 0.0 | 4.0 | 0.00 | 0.00 | 0.00 | 23 | 1009.4 |
| 20260504012516 | 68 | 259 | 1.0 | 5.0 | 0.00 | 0.00 | 0.00 | 22 | 1009.5 |
| 20260504012026 | 69 | 263 | 2.0 | 5.0 | 0.00 | 0.00 | 0.00 | 23 | 1009.5 |
| 20260504011527 | 69 | 263 | 3.0 | 6.0 | 0.00 | 0.00 | 0.00 | 22 | 1009.5 |
| 20260504011027 | 69 | 265 | 2.0 | 7.0 | 0.00 | 0.00 | 0.00 | 22 | 1009.7 |
| 20260504010516 | 69 | 260 | 4.0 | 9.0 | 0.00 | 0.00 | 0.00 | 22 | 1009.7 |
| 20260504010017 | 70 | 240 | 5.0 | 9.0 | 0.00 | 0.00 | 0.00 | 21 | 1009.6 |
| 20260504005523 | 70 | 270 | 4.0 | 9.0 | 0.00 | 0.00 | 0.00 | 21 | 1009.8 |
| 20260504005023 | 70 | 258 | 5.0 | 11.0 | 0.00 | 0.00 | 0.00 | 22 | 1009.8 |
| 20260504004524 | 70 | 262 | 4.0 | 11.0 | 0.00 | 0.00 | 0.00 | 21 | 1009.9 |
| 20260504004013 | 70 | 251 | 5.0 | 8.0 | 0.00 | 0.00 | 0.00 | 21 | 1009.9 |
| 20260504003515 | 70 | 273 | 2.0 | 7.0 | 0.00 | 0.00 | 0.00 | 21 | 1009.9 |
| 20260504003017 | 70 | 262 | 2.0 | 7.0 | 0.00 | 0.00 | 0.00 | 20 | 1010.0 |
| 20260504002525 | 71 | 242 | 3.0 | 6.0 | 0.00 | 0.00 | 0.00 | 20 | 1009.9 |
| 20260504002026 | 71 | 292 | 0.0 | 4.0 | 0.00 | 0.00 | 0.00 | 21 | 1010.1 |
| 20260504001535 | 71 | 293 | 1.0 | 4.0 | 0.00 | 0.00 | 0.00 | 21 | 1010.1 |
| 20260504001017 | 71 | 277 | 2.0 | 5.0 | 0.00 | 0.00 | 0.00 | 21 | 1010.1 |
| 20260504000519 | 71 | 250 | 2.0 | 5.0 | 0.00 | 0.00 | 0.00 | 21 | 1010.2 |
| 20260504000019 | 71 | 260 | 2.0 | 7.0 | 0.00 | 0.00 | 0.00 | 20 | 1010.2 |
| 20260503235526 | 71 | 259 | 2.0 | 7.0 | 0.00 | 0.00 | 0.00 | 19 | 1010.2 |
| 20260503235034 | 70 | 234 | 5.0 | 7.0 | 0.00 | 0.00 | 0.00 | 19 | 1010.2 |
| 20260503234515 | 71 | 258 | 4.0 | 12.0 | 0.00 | 0.00 | 0.00 | 19 | 1010.4 |
| 20260503234016 | 71 | 319 | 3.0 | 12.0 | 0.00 | 0.00 | 0.00 | 19 | 1010.4 |
| 20260503233517 | 71 | 321 | 5.0 | 12.0 | 0.00 | 0.00 | 0.00 | 19 | 1010.3 |
| 20260503233046 | 71 | 336 | 2.0 | 9.0 | 0.00 | 0.00 | 0.00 | 18 | 1010.3 |
| 20260503232533 | 71 | 321 | 2.0 | 14.0 | 0.00 | 0.00 | 0.00 | 18 | 1010.3 |
| 20260503232014 | 71 | 335 | 6.0 | 15.0 | 0.00 | 0.00 | 0.00 | 17 | 1010.2 |
| 20260503231515 | 72 | 327 | 4.0 | 12.0 | 0.00 | 0.00 | 0.00 | 18 | 1010.0 |
| 20260503231024 | 72 | 250 | 6.0 | 12.0 | 0.00 | 0.00 | 0.00 | 18 | 1010.1 |
| 20260503230525 | 72 | 274 | 4.0 | 9.0 | 0.00 | 0.00 | 0.00 | 18 | 1010.2 |
| 20260503230022 | 72 | 252 | 2.0 | 8.0 | 0.00 | 0.00 | 0.00 | 16 | 1010.1 |
| 20260503225530 | 72 | 340 | 4.0 | 8.0 | 0.00 | 0.00 | 0.00 | 16 | 1010.1 |
| 20260503225030 | 71 | 341 | 0.0 | 8.0 | 0.00 | 0.00 | 0.00 | 17 | 1010.1 |
| 20260503224537 | 71 | 287 | 3.0 | 8.0 | 0.00 | 0.00 | 0.00 | 17 | 1010.2 |
| 20260503224017 | 71 | 254 | 0.0 | 19.0 | 0.00 | 0.00 | 0.00 | 17 | 1010.3 |